Time;durP1;ratioP1;P1;durP2;ratioP2;P2;SDS_P1;SDS_P2;PMS_P1;PMS_P2;Temp;Humidity;BMP_temperature;BMP_pressure;BME280_temperature;BME280_humidity;BME280_pressure;Samples;Min_cycle;Max_cycle;Signal;HPM_P1;HPM_P2
2023/11/11 00:00:22;;;;;;;;;;;;;;;;;;5051370;28;20332;-72
2023/11/11 00:02:49;;;;;;;;;;;;;;;;;;5055825;28;19939;-72
2023/11/11 00:05:16;;;;;;;;;;;;;;;;;;5051599;28;20023;-72
2023/11/11 00:07:44;;;;;;;;;;;;;;;;;;5052144;28;19986;-72
2023/11/11 00:10:11;;;;;;;;;;;;;;;;;;5050651;28;20379;-72
2023/11/11 00:12:39;;;;;;;;;;;;;;;;;;5066236;28;19936;-72
2023/11/11 00:15:09;;;;;;;;;;;;;;;;;;5043020;28;19964;-72
2023/11/11 00:17:39;;;;;;;;;;;;;;;;;;5051238;28;19925;-71
2023/11/11 00:20:12;;;;;;;;;;;;;;;;;;5051223;28;19947;-71
2023/11/11 00:22:39;;;;;;;;;;;;;;;;;;5050981;28;19928;-72
2023/11/11 00:25:06;;;;;;;;;;;;;;;;;;5046485;28;19936;-71
2023/11/11 00:27:33;;;;;;;;;;;;;;;;;;5051722;28;20375;-72
2023/11/11 00:30:03;;;;;;;;;;;;;;;;;;5051076;28;19925;-71
2023/11/11 00:32:30;;;;;;;;;;;;;;;;;;5050734;28;19931;-71
2023/11/11 00:34:57;;;;;;;;;;;;;;;;;;5050461;28;20015;-70
2023/11/11 00:37:24;;;;;;;;;;;;;;;;;;5051020;28;19972;-71
2023/11/11 00:39:51;;;;;;;;;;;;;;;;;;5050680;28;19932;-70
2023/11/11 00:42:18;;;;;;;;;;;;;;;;;;5051361;28;20017;-71
2023/11/11 00:44:45;;;;;;;;;;;;;;;;;;5054834;28;20447;-71
2023/11/11 00:47:13;;;;;;;;;;;;;;;;;;5054167;28;20383;-71
2023/11/11 00:49:41;;;;;;;;;;;;;;;;;;5055372;28;19980;-71
2023/11/11 00:52:08;;;;;;;;;;;;;;;;;;5054371;28;19931;-72
2023/11/11 00:54:38;;;;;;;;;;;;;;;;;;5042153;28;20004;-72
2023/11/11 00:57:05;;;;;;;;;;;;;;;;;;5052553;28;20280;-72
2023/11/11 00:59:32;;;;;;;;;;;;;;;;;;5053429;28;21727;-73
2023/11/11 01:02:00;;;;;;;;;;;;;;;;;;5053840;28;20391;-73
2023/11/11 01:04:27;;;;;;;;;;;;;;;;;;5075490;28;19925;-73
2023/11/11 01:06:54;;;;;;;;;;;;;;;;;;5065744;28;20314;-73
2023/11/11 01:09:21;;;;;;;;;;;;;;;;;;5055539;28;19972;-73
2023/11/11 01:11:48;;;;;;;;;;;;;;;;;;5051539;28;19958;-73
2023/11/11 01:14:15;;;;;;;;;;;;;;;;;;5054577;28;20418;-72
2023/11/11 01:16:42;;;;;;;;;;;;;;;;;;5053031;28;19937;-73
2023/11/11 01:19:10;;;;;;;;;;;;;;;;;;5066799;28;19931;-72
2023/11/11 01:21:37;;;;;;;;;;;;;;;;;;5054243;28;19924;-73
2023/11/11 01:24:04;;;;;;;;;;;;;;;;;;5042872;28;19932;-72
2023/11/11 01:26:31;;;;;;;;;;;;;;;;;;5054259;28;19971;-71
2023/11/11 01:28:58;;;;;;;;;;;;;;;;;;5052098;28;19928;-71
2023/11/11 01:31:25;;;;;;;;;;;;;;;;;;5053904;28;19925;-71
2023/11/11 01:33:52;;;;;;;;;;;;;;;;;;5054290;28;19924;-72
2023/11/11 01:36:19;;;;;;;;;;;;;;;;;;5054668;28;19964;-72
2023/11/11 01:38:46;;;;;;;;;;;;;;;;;;5051302;28;19928;-72
2023/11/11 01:41:13;;;;;;;;;;;;;;;;;;5054171;28;19981;-72
2023/11/11 01:43:40;;;;;;;;;;;;;;;;;;5053608;28;19925;-72
2023/11/11 01:46:07;;;;;;;;;;;;;;;;;;5053224;28;19924;-71
2023/11/11 01:48:35;;;;;;;;;;;;;;;;;;5053715;28;20015;-71
2023/11/11 01:51:02;;;;;;;;;;;;;;;;;;5053211;28;19925;-71
2023/11/11 01:53:29;;;;;;;;;;;;;;;;;;5054363;28;19947;-70
2023/11/11 01:55:56;;;;;;;;;;;;;;;;;;5073905;28;19924;-71
2023/11/11 01:58:23;;;;;;;;;;;;;;;;;;5066918;28;20016;-71
2023/11/11 02:00:51;;;;;;;;;;;;;;;;;;5050697;28;19964;-71
2023/11/11 02:03:19;;;;;;;;;;;;;;;;;;5055701;28;20402;-71
2023/11/11 02:05:46;;;;;;;;;;;;;;;;;;5054093;28;19928;-71
2023/11/11 02:08:14;;;;;;;;;;;;;;;;;;5052282;28;19967;-72
2023/11/11 02:10:41;;;;;;;;;;;;;;;;;;5052584;28;19928;-72
2023/11/11 02:13:09;;;;;;;;;;;;;;;;;;5068542;28;19970;-72
2023/11/11 02:15:36;;;;;;;;;;;;;;;;;;5054406;28;20368;-72
2023/11/11 02:18:03;;;;;;;;;;;;;;;;;;5050269;28;19971;-73
2023/11/11 02:20:33;;;;;;;;;;;;;;;;;;5051817;28;19924;-72
2023/11/11 02:23:00;;;;;;;;;;;;;;;;;;5037300;28;20446;-72
2023/11/11 02:25:27;;;;;;;;;;;;;;;;;;5034053;28;19930;-72
2023/11/11 02:27:54;;;;;;;;;;;;;;;;;;5042660;28;19925;-72
2023/11/11 02:30:21;;;;;;;;;;;;;;;;;;5050817;28;20466;-72
2023/11/11 02:32:48;;;;;;;;;;;;;;;;;;5053384;28;19929;-72
2023/11/11 02:35:15;;;;;;;;;;;;;;;;;;5048265;28;20008;-72
2023/11/11 02:37:42;;;;;;;;;;;;;;;;;;5041700;28;19925;-72
2023/11/11 02:40:12;;;;;;;;;;;;;;;;;;5051927;28;20350;-72
2023/11/11 02:42:39;;;;;;;;;;;;;;;;;;5052778;28;19931;-72
2023/11/11 02:45:06;;;;;;;;;;;;;;;;;;5051971;28;19925;-72
2023/11/11 02:47:33;;;;;;;;;;;;;;;;;;5053325;28;20462;-73
2023/11/11 02:50:00;;;;;;;;;;;;;;;;;;5051216;28;20417;-73
2023/11/11 02:52:27;;;;;;;;;;;;;;;;;;5052963;28;20371;-72
2023/11/11 02:54:54;;;;;;;;;;;;;;;;;;5053223;28;20015;-73
2023/11/11 02:57:21;;;;;;;;;;;;;;;;;;5052017;28;19929;-72
2023/11/11 02:59:48;;;;;;;;;;;;;;;;;;5051329;28;20008;-71
2023/11/11 03:02:15;;;;;;;;;;;;;;;;;;5054344;28;19968;-71
2023/11/11 03:04:43;;;;;;;;;;;;;;;;;;5072435;28;20007;-72
2023/11/11 03:07:10;;;;;;;;;;;;;;;;;;5060054;28;19932;-71
2023/11/11 03:09:37;;;;;;;;;;;;;;;;;;5051346;28;19975;-72
2023/11/11 03:12:04;;;;;;;;;;;;;;;;;;5064950;28;20383;-71
2023/11/11 03:14:31;;;;;;;;;;;;;;;;;;5052876;28;19932;-72
2023/11/11 03:16:58;;;;;;;;;;;;;;;;;;5050974;28;20296;-72
2023/11/11 03:19:25;;;;;;;;;;;;;;;;;;5051412;28;19979;-71
2023/11/11 03:21:53;;;;;;;;;;;;;;;;;;5045269;28;19928;-70
2023/11/11 03:24:20;;;;;;;;;;;;;;;;;;5048796;28;19956;-72
2023/11/11 03:26:47;;;;;;;;;;;;;;;;;;5051041;28;20037;-71
2023/11/11 03:29:14;;;;;;;;;;;;;;;;;;5050098;28;19924;-72
2023/11/11 03:31:41;;;;;;;;;;;;;;;;;;5052370;28;19971;-72
2023/11/11 03:34:08;;;;;;;;;;;;;;;;;;5052654;28;19929;-71
2023/11/11 03:36:35;;;;;;;;;;;;;;;;;;5052401;28;19925;-71
2023/11/11 03:39:03;;;;;;;;;;;;;;;;;;5051929;28;19932;-71
2023/11/11 03:41:30;;;;;;;;;;;;;;;;;;5051687;28;20008;-71
2023/11/11 03:43:57;;;;;;;;;;;;;;;;;;5050228;28;19925;-71
2023/11/11 03:46:24;;;;;;;;;;;;;;;;;;5051069;28;19925;-72
2023/11/11 03:48:51;;;;;;;;;;;;;;;;;;5049451;28;19929;-71
2023/11/11 03:51:18;;;;;;;;;;;;;;;;;;5050361;28;20558;-71
2023/11/11 03:53:45;;;;;;;;;;;;;;;;;;5051095;28;20030;-71
2023/11/11 03:56:12;;;;;;;;;;;;;;;;;;5051543;28;19971;-71
2023/11/11 03:58:39;;;;;;;;;;;;;;;;;;5050550;28;19932;-71
2023/11/11 04:01:06;;;;;;;;;;;;;;;;;;5050522;28;19952;-71
2023/11/11 04:03:36;;;;;;;;;;;;;;;;;;5053169;28;19925;-71
2023/11/11 04:06:03;;;;;;;;;;;;;;;;;;5052271;28;19986;-71
2023/11/11 04:08:31;;;;;;;;;;;;;;;;;;5050207;28;20031;-71
2023/11/11 04:10:58;;;;;;;;;;;;;;;;;;5052372;28;19924;-71
2023/11/11 04:13:25;;;;;;;;;;;;;;;;;;5047147;28;19924;-71
2023/11/11 04:15:52;;;;;;;;;;;;;;;;;;5050868;28;20007;-71
2023/11/11 04:18:19;;;;;;;;;;;;;;;;;;5050385;28;20024;-73
2023/11/11 04:20:46;;;;;;;;;;;;;;;;;;5046615;28;20016;-71
2023/11/11 04:23:13;;;;;;;;;;;;;;;;;;5046688;28;20329;-71
2023/11/11 04:25:40;;;;;;;;;;;;;;;;;;5056060;28;20007;-71
2023/11/11 04:28:07;;;;;;;;;;;;;;;;;;5054273;28;20023;-71
2023/11/11 04:30:34;;;;;;;;;;;;;;;;;;5054587;28;19979;-71
2023/11/11 04:33:01;;;;;;;;;;;;;;;;;;5054333;28;20419;-73
2023/11/11 04:35:28;;;;;;;;;;;;;;;;;;5049905;28;20011;-72
2023/11/11 04:37:55;;;;;;;;;;;;;;;;;;5052520;28;19924;-72
2023/11/11 04:40:22;;;;;;;;;;;;;;;;;;5055985;28;20359;-72
2023/11/11 04:42:49;;;;;;;;;;;;;;;;;;5049930;28;20012;-71
2023/11/11 04:45:16;;;;;;;;;;;;;;;;;;5053012;28;19928;-73
2023/11/11 04:47:43;;;;;;;;;;;;;;;;;;5053020;28;19925;-73
2023/11/11 04:50:10;;;;;;;;;;;;;;;;;;5055638;28;19935;-72
2023/11/11 04:52:38;;;;;;;;;;;;;;;;;;5049045;28;20008;-72
2023/11/11 04:55:05;;;;;;;;;;;;;;;;;;5055281;28;19932;-73
2023/11/11 04:57:33;;;;;;;;;;;;;;;;;;5053511;28;19932;-71
2023/11/11 05:00:00;;;;;;;;;;;;;;;;;;5054277;28;19931;-73
2023/11/11 05:02:27;;;;;;;;;;;;;;;;;;5063928;28;19929;-72
2023/11/11 05:04:54;;;;;;;;;;;;;;;;;;5075487;28;20006;-72
2023/11/11 05:07:22;;;;;;;;;;;;;;;;;;5055524;28;19925;-72
2023/11/11 05:09:50;;;;;;;;;;;;;;;;;;5052248;28;19924;-71
2023/11/11 05:12:17;;;;;;;;;;;;;;;;;;5052424;28;19929;-72
2023/11/11 05:14:44;;;;;;;;;;;;;;;;;;5053341;28;20343;-71
2023/11/11 05:17:13;;;;;;;;;;;;;;;;;;5051470;28;19929;-71
2023/11/11 05:19:40;;;;;;;;;;;;;;;;;;5039856;28;20272;-71
2023/11/11 05:22:07;;;;;;;;;;;;;;;;;;5036958;28;19971;-70
2023/11/11 05:24:34;;;;;;;;;;;;;;;;;;5053490;28;19924;-70
2023/11/11 05:27:01;;;;;;;;;;;;;;;;;;5054477;28;19924;-71
2023/11/11 05:29:28;;;;;;;;;;;;;;;;;;5051718;28;20023;-70
2023/11/11 05:31:55;;;;;;;;;;;;;;;;;;5052337;28;19933;-70
2023/11/11 05:34:22;;;;;;;;;;;;;;;;;;5054655;28;19955;-71
2023/11/11 05:36:50;;;;;;;;;;;;;;;;;;5054263;28;20543;-71
2023/11/11 05:39:17;;;;;;;;;;;;;;;;;;5054472;28;19925;-71
2023/11/11 05:41:45;;;;;;;;;;;;;;;;;;5041748;28;20012;-70
2023/11/11 05:44:12;;;;;;;;;;;;;;;;;;5052799;28;19929;-70
2023/11/11 05:46:39;;;;;;;;;;;;;;;;;;5054062;28;19925;-70
2023/11/11 05:49:06;;;;;;;;;;;;;;;;;;5054017;28;19925;-70
2023/11/11 05:51:34;;;;;;;;;;;;;;;;;;5053934;28;19932;-71
2023/11/11 05:54:01;;;;;;;;;;;;;;;;;;5052860;28;19925;-70
2023/11/11 05:56:28;;;;;;;;;;;;;;;;;;5054267;28;19925;-70
2023/11/11 05:58:58;;;;;;;;;;;;;;;;;;5052648;28;19982;-70
2023/11/11 06:01:25;;;;;;;;;;;;;;;;;;5052886;28;19924;-70
2023/11/11 06:03:53;;;;;;;;;;;;;;;;;;5048446;28;19925;-70
2023/11/11 06:06:20;;;;;;;;;;;;;;;;;;5053727;28;20368;-69
2023/11/11 06:08:47;;;;;;;;;;;;;;;;;;5054011;28;20518;-70
2023/11/11 06:11:15;;;;;;;;;;;;;;;;;;5051898;28;19925;-70
2023/11/11 06:13:42;;;;;;;;;;;;;;;;;;5053119;28;19928;-69
2023/11/11 06:16:10;;;;;;;;;;;;;;;;;;5051724;28;19974;-70
2023/11/11 06:18:37;;;;;;;;;;;;;;;;;;5053749;28;19931;-70
2023/11/11 06:21:04;;;;;;;;;;;;;;;;;;5052742;28;20322;-70
2023/11/11 06:23:31;;;;;;;;;;;;;;;;;;5052701;28;19976;-69
2023/11/11 06:25:58;;;;;;;;;;;;;;;;;;5053669;28;20000;-69
2023/11/11 06:28:25;;;;;;;;;;;;;;;;;;5052505;28;19928;-70
2023/11/11 06:30:52;;;;;;;;;;;;;;;;;;5051529;28;19979;-69
2023/11/11 06:33:20;;;;;;;;;;;;;;;;;;5046451;28;19964;-70
2023/11/11 06:35:47;;;;;;;;;;;;;;;;;;5051052;28;20339;-69
2023/11/11 06:38:14;;;;;;;;;;;;;;;;;;5056584;28;19925;-70
2023/11/11 06:40:42;;;;;;;;;;;;;;;;;;5063441;28;20287;-69
2023/11/11 06:43:10;;;;;;;;;;;;;;;;;;5054252;28;19995;-69
2023/11/11 06:45:39;;;;;;;;;;;;;;;;;;5051733;28;19982;-68
2023/11/11 06:48:06;;;;;;;;;;;;;;;;;;5051917;28;19925;-70
2023/11/11 06:50:34;;;;;;;;;;;;;;;;;;5039974;28;19972;-71
2023/11/11 06:53:01;;;;;;;;;;;;;;;;;;5050184;28;19924;-70
2023/11/11 06:55:30;;;;;;;;;;;;;;;;;;5058612;28;20115;-69
2023/11/11 06:57:57;;;;;;;;;;;;;;;;;;5054681;28;20360;-68
2023/11/11 07:00:25;;;;;;;;;;;;;;;;;;5060378;28;19933;-69
2023/11/11 07:02:54;;;;;;;;;;;;;;;;;;5050765;28;19932;-68
2023/11/11 07:05:21;;;;;;;;;;;;;;;;;;5043986;28;19925;-67
2023/11/11 07:07:48;;;;;;;;;;;;;;;;;;5041580;28;20463;-68
2023/11/11 07:10:15;;;;;;;;;;;;;;;;;;5061747;28;19924;-68
2023/11/11 07:12:43;;;;;;;;;;;;;;;;;;5050222;28;19925;-68
2023/11/11 07:15:10;;;;;;;;;;;;;;;;;;5050645;28;20439;-68
2023/11/11 07:17:40;;;;;;;;;;;;;;;;;;5052622;28;19925;-68
2023/11/11 07:20:09;;;;;;;;;;;;;;;;;;5052112;28;19925;-68
2023/11/11 07:22:37;;;;;;;;;;;;;;;;;;5048630;28;19932;-68
2023/11/11 07:25:05;;;;;;;;;;;;;;;;;;5045748;28;19925;-68
2023/11/11 07:27:32;;;;;;;;;;;;;;;;;;5054270;28;19931;-67
2023/11/11 07:29:59;;;;;;;;;;;;;;;;;;5051502;28;19991;-68
2023/11/11 07:32:26;;;;;;;;;;;;;;;;;;5050200;28;20007;-68
2023/11/11 07:34:53;;;;;;;;;;;;;;;;;;5051373;28;19975;-68
2023/11/11 07:37:21;;;;;;;;;;;;;;;;;;5051827;28;19964;-68
2023/11/11 07:39:48;;;;;;;;;;;;;;;;;;5044724;28;20020;-67
2023/11/11 07:42:15;;;;;;;;;;;;;;;;;;5044092;28;19935;-67
2023/11/11 07:44:42;;;;;;;;;;;;;;;;;;5055291;28;19940;-67
2023/11/11 07:47:10;;;;;;;;;;;;;;;;;;5048774;28;19933;-68
2023/11/11 07:49:37;;;;;;;;;;;;;;;;;;5059148;28;19925;-69
2023/11/11 07:52:05;;;;;;;;;;;;;;;;;;5051216;28;19932;-69
2023/11/11 07:54:33;;;;;;;;;;;;;;;;;;5049686;28;19932;-70
2023/11/11 07:57:00;;;;;;;;;;;;;;;;;;5045337;28;19933;-67
2023/11/11 07:59:28;;;;;;;;;;;;;;;;;;5052269;28;19924;-68
2023/11/11 08:01:55;;;;;;;;;;;;;;;;;;5047192;28;19994;-68
2023/11/11 08:04:23;;;;;;;;;;;;;;;;;;5043178;28;19998;-69
2023/11/11 08:06:50;;;;;;;;;;;;;;;;;;5051065;28;19925;-68
2023/11/11 08:09:17;;;;;;;;;;;;;;;;;;5049239;28;20405;-68
2023/11/11 08:11:45;;;;;;;;;;;;;;;;;;5050816;28;20449;-68
2023/11/11 08:14:12;;;;;;;;;;;;;;;;;;5037356;28;20012;-70
2023/11/11 08:16:39;;;;;;;;;;;;;;;;;;5040524;28;19926;-68
2023/11/11 08:19:06;;;;;;;;;;;;;;;;;;5038513;28;20326;-68
2023/11/11 08:21:34;;;;;;;;;;;;;;;;;;5051232;28;19929;-68
2023/11/11 08:24:01;;;;;;;;;;;;;;;;;;5062521;28;19970;-68
2023/11/11 08:26:28;;;;;;;;;;;;;;;;;;5059612;28;20030;-68
2023/11/11 08:28:55;;;;;;;;;;;;;;;;;;5036705;28;19928;-68
2023/11/11 08:31:22;;;;;;;;;;;;;;;;;;5052649;28;19924;-68
2023/11/11 08:33:49;;;;;;;;;;;;;;;;;;5050749;28;19925;-68
2023/11/11 08:36:17;;;;;;;;;;;;;;;;;;5061168;28;20387;-67
2023/11/11 08:38:47;;;;;;;;;;;;;;;;;;5059745;28;19928;-69
2023/11/11 08:41:14;;;;;;;;;;;;;;;;;;5057884;28;20302;-69
2023/11/11 08:43:41;;;;;;;;;;;;;;;;;;5046252;28;19929;-68
2023/11/11 08:46:10;;;;;;;;;;;;;;;;;;5051775;28;20333;-68
2023/11/11 08:48:40;;;;;;;;;;;;;;;;;;5049041;28;19933;-68
2023/11/11 08:51:07;;;;;;;;;;;;;;;;;;5050098;28;19932;-68
2023/11/11 08:53:34;;;;;;;;;;;;;;;;;;5050515;28;19924;-68
2023/11/11 08:56:02;;;;;;;;;;;;;;;;;;5046699;28;19928;-68
2023/11/11 08:58:29;;;;;;;;;;;;;;;;;;5049310;28;20379;-69
2023/11/11 09:00:56;;;;;;;;;;;;;;;;;;5042396;28;20450;-67
2023/11/11 09:03:23;;;;;;;;;;;;;;;;;;5048088;28;20422;-68
2023/11/11 09:05:50;;;;;;;;;;;;;;;;;;5039293;28;20394;-69
2023/11/11 09:08:17;;;;;;;;;;;;;;;;;;5055334;28;20039;-68
2023/11/11 09:10:44;;;;;;;;;;;;;;;;;;5050656;28;19979;-71
2023/11/11 09:13:11;;;;;;;;;;;;;;;;;;5053531;28;19929;-70
2023/11/11 09:15:38;;;;;;;;;;;;;;;;;;5052290;28;20031;-70
2023/11/11 09:18:06;;;;;;;;;;;;;;;;;;5054251;28;19925;-69
2023/11/11 09:20:33;;;;;;;;;;;;;;;;;;5055607;28;20008;-69
2023/11/11 09:23:00;;;;;;;;;;;;;;;;;;5047877;28;19975;-69
2023/11/11 09:25:29;;;;;;;;;;;;;;;;;;5054893;28;20011;-68
2023/11/11 09:27:57;;;;;;;;;;;;;;;;;;5063135;28;20283;-68
2023/11/11 09:30:24;;;;;;;;;;;;;;;;;;5049635;28;19940;-68
2023/11/11 09:32:53;;;;;;;;;;;;;;;;;;5036644;28;20016;-69
2023/11/11 09:35:20;;;;;;;;;;;;;;;;;;5042839;28;20350;-70
2023/11/11 09:37:48;;;;;;;;;;;;;;;;;;5046164;28;19940;-66
2023/11/11 09:40:16;;;;;;;;;;;;;;;;;;5046709;28;19943;-67
2023/11/11 09:42:43;;;;;;;;;;;;;;;;;;5047993;28;19925;-66
2023/11/11 09:45:10;;;;;;;;;;;;;;;;;;5052166;28;20395;-68
2023/11/11 09:47:37;;;;;;;;;;;;;;;;;;5048314;28;19925;-67
2023/11/11 09:50:05;;;;;;;;;;;;;;;;;;5044420;28;19979;-67
2023/11/11 09:52:32;;;;;;;;;;;;;;;;;;5049672;28;19939;-68
2023/11/11 09:54:59;;;;;;;;;;;;;;;;;;5048558;28;20012;-70
2023/11/11 09:57:26;;;;;;;;;;;;;;;;;;5041474;28;19924;-68
2023/11/11 09:59:53;;;;;;;;;;;;;;;;;;5045484;28;19956;-69
2023/11/11 10:02:21;;;;;;;;;;;;;;;;;;5052964;28;20295;-69
2023/11/11 10:04:48;;;;;;;;;;;;;;;;;;5052861;28;19971;-68
2023/11/11 10:07:15;;;;;;;;;;;;;;;;;;5047739;28;20015;-69
2023/11/11 10:09:42;;;;;;;;;;;;;;;;;;5045053;28;19925;-68
2023/11/11 10:12:09;;;;;;;;;;;;;;;;;;5053531;28;20004;-68
2023/11/11 10:14:36;;;;;;;;;;;;;;;;;;5052022;28;19955;-68
2023/11/11 10:17:03;;;;;;;;;;;;;;;;;;5053742;28;19925;-68
2023/11/11 10:19:31;;;;;;;;;;;;;;;;;;5045955;28;19933;-68
2023/11/11 10:21:58;;;;;;;;;;;;;;;;;;5044826;28;20045;-68
2023/11/11 10:24:26;;;;;;;;;;;;;;;;;;5036251;28;20020;-69
2023/11/11 10:26:53;;;;;;;;;;;;;;;;;;5042800;28;19973;-68
2023/11/11 10:29:20;;;;;;;;;;;;;;;;;;5040447;28;20035;-69
2023/11/11 10:31:48;;;;;;;;;;;;;;;;;;5058494;22;19965;-68
2023/11/11 10:34:16;;;;;;;;;;;;;;;;;;5043763;28;20453;-68
2023/11/11 10:36:44;;;;;;;;;;;;;;;;;;5048334;28;19929;-67
2023/11/11 10:39:11;;;;;;;;;;;;;;;;;;5050997;28;19925;-68
2023/11/11 10:41:39;;;;;;;;;;;;;;;;;;5050809;28;20307;-67
2023/11/11 10:44:07;;;;;;;;;;;;;;;;;;5051734;28;20007;-68
2023/11/11 10:46:35;;;;;;;;;;;;;;;;;;5050221;28;19972;-68
2023/11/11 10:49:02;;;;;;;;;;;;;;;;;;5049030;28;19929;-70
2023/11/11 10:51:29;;;;;;;;;;;;;;;;;;5038231;28;20422;-67
2023/11/11 10:53:56;;;;;;;;;;;;;;;;;;5047527;28;19933;-67
2023/11/11 10:56:23;;;;;;;;;;;;;;;;;;5052418;28;19925;-67
2023/11/11 10:58:51;;;;;;;;;;;;;;;;;;5046892;28;19933;-69
2023/11/11 11:01:18;;;;;;;;;;;;;;;;;;5041619;28;20012;-69
2023/11/11 11:03:45;;;;;;;;;;;;;;;;;;5052733;28;20468;-70
2023/11/11 11:06:13;;;;;;;;;;;;;;;;;;5051254;28;20388;-69
2023/11/11 11:08:40;;;;;;;;;;;;;;;;;;5050060;28;19960;-68
2023/11/11 11:11:07;;;;;;;;;;;;;;;;;;5051721;28;20001;-68
2023/11/11 11:13:34;;;;;;;;;;;;;;;;;;5051721;28;19929;-68
2023/11/11 11:16:05;;;;;;;;;;;;;;;;;;5032179;28;19925;-68
2023/11/11 11:18:32;;;;;;;;;;;;;;;;;;5039748;28;19925;-68
2023/11/11 11:21:00;;;;;;;;;;;;;;;;;;5051419;28;20023;-69
2023/11/11 11:23:28;;;;;;;;;;;;;;;;;;5047613;28;19928;-69
2023/11/11 11:25:55;;;;;;;;;;;;;;;;;;5051532;28;19979;-67
2023/11/11 11:28:24;;;;;;;;;;;;;;;;;;5052726;28;20020;-68
2023/11/11 11:30:53;;;;;;;;;;;;;;;;;;5048824;28;19929;-68
2023/11/11 11:33:20;;;;;;;;;;;;;;;;;;5037539;28;20293;-69
2023/11/11 11:35:47;;;;;;;;;;;;;;;;;;5043133;28;20027;-69
2023/11/11 11:38:14;;;;;;;;;;;;;;;;;;5051680;28;19987;-67
2023/11/11 11:40:41;;;;;;;;;;;;;;;;;;5051050;28;19936;-68
2023/11/11 11:43:08;;;;;;;;;;;;;;;;;;5051482;28;20019;-67
2023/11/11 11:45:35;;;;;;;;;;;;;;;;;;5051029;28;19968;-68
2023/11/11 11:48:02;;;;;;;;;;;;;;;;;;5051870;28;19925;-68
2023/11/11 11:50:29;;;;;;;;;;;;;;;;;;5053277;28;20386;-68
2023/11/11 11:52:58;;;;;;;;;;;;;;;;;;5048714;28;20006;-68
2023/11/11 11:55:27;;;;;;;;;;;;;;;;;;5041730;28;20408;-69
2023/11/11 11:57:55;;;;;;;;;;;;;;;;;;5047937;28;20240;-69
2023/11/11 12:00:22;;;;;;;;;;;;;;;;;;5050237;28;19994;-68
2023/11/11 12:02:49;;;;;;;;;;;;;;;;;;5047415;28;20023;-68
2023/11/11 12:05:17;;;;;;;;;;;;;;;;;;5049269;28;20402;-68
2023/11/11 12:07:44;;;;;;;;;;;;;;;;;;5051323;28;19925;-67
2023/11/11 12:10:11;;;;;;;;;;;;;;;;;;5051964;28;19951;-69
2023/11/11 12:12:39;;;;;;;;;;;;;;;;;;5050838;28;19925;-68
2023/11/11 12:15:06;;;;;;;;;;;;;;;;;;5050189;28;19924;-67
2023/11/11 12:17:34;;;;;;;;;;;;;;;;;;5051850;28;20364;-69
2023/11/11 12:20:04;;;;;;;;;;;;;;;;;;5051488;28;19932;-69
2023/11/11 12:22:31;;;;;;;;;;;;;;;;;;5049735;28;19932;-68
2023/11/11 12:24:58;;;;;;;;;;;;;;;;;;5049487;28;20011;-68
2023/11/11 12:27:25;;;;;;;;;;;;;;;;;;5049625;28;19932;-68
2023/11/11 12:29:53;;;;;;;;;;;;;;;;;;5051314;28;19956;-67
2023/11/11 12:32:20;;;;;;;;;;;;;;;;;;5047171;28;19929;-65
2023/11/11 12:34:50;;;;;;;;;;;;;;;;;;5051071;28;19991;-66
2023/11/11 12:37:17;;;;;;;;;;;;;;;;;;5051934;28;20431;-66
2023/11/11 12:39:44;;;;;;;;;;;;;;;;;;5050171;28;20000;-65
2023/11/11 12:42:12;;;;;;;;;;;;;;;;;;5053575;28;20035;-67
2023/11/11 12:44:41;;;;;;;;;;;;;;;;;;5055105;28;19925;-69
2023/11/11 12:47:09;;;;;;;;;;;;;;;;;;5055030;28;19924;-68
2023/11/11 12:49:37;;;;;;;;;;;;;;;;;;5055642;28;19925;-66
2023/11/11 12:52:05;;;;;;;;;;;;;;;;;;5053401;28;19925;-66
2023/11/11 12:54:32;;;;;;;;;;;;;;;;;;5055367;28;19932;-66
2023/11/11 12:56:59;;;;;;;;;;;;;;;;;;5042235;28;19941;-67
2023/11/11 12:59:26;;;;;;;;;;;;;;;;;;5055055;28;20004;-68
2023/11/11 13:01:53;;;;;;;;;;;;;;;;;;5054646;28;20069;-68
2023/11/11 13:04:21;;;;;;;;;;;;;;;;;;5049514;28;20379;-69
2023/11/11 13:06:53;;;;;;;;;;;;;;;;;;5049415;28;19925;-70
2023/11/11 13:09:22;;;;;;;;;;;;;;;;;;5047365;28;20420;-67
2023/11/11 13:11:51;;;;;;;;;;;;;;;;;;5052981;28;19944;-67
2023/11/11 13:14:19;;;;;;;;;;;;;;;;;;5050524;28;19936;-68
2023/11/11 13:16:47;;;;;;;;;;;;;;;;;;5052103;28;19978;-67
2023/11/11 13:19:14;;;;;;;;;;;;;;;;;;5054727;28;19933;-66
2023/11/11 13:21:41;;;;;;;;;;;;;;;;;;5054510;28;19925;-67
2023/11/11 13:24:09;;;;;;;;;;;;;;;;;;5047190;28;19925;-67
2023/11/11 13:26:36;;;;;;;;;;;;;;;;;;5040832;28;19925;-67
2023/11/11 13:29:05;;;;;;;;;;;;;;;;;;5054519;28;19929;-68
2023/11/11 13:31:32;;;;;;;;;;;;;;;;;;5053339;28;20410;-68
2023/11/11 13:33:59;;;;;;;;;;;;;;;;;;5044029;28;19925;-68
2023/11/11 13:36:29;;;;;;;;;;;;;;;;;;5040149;28;19957;-72
2023/11/11 13:38:56;;;;;;;;;;;;;;;;;;5054229;28;19924;-71
2023/11/11 13:41:26;;;;;;;;;;;;;;;;;;5046331;28;20004;-74
2023/11/11 13:43:54;;;;;;;;;;;;;;;;;;5044563;28;19925;-70
2023/11/11 13:46:22;;;;;;;;;;;;;;;;;;5050709;28;19925;-71
2023/11/11 13:48:49;;;;;;;;;;;;;;;;;;5051385;28;20332;-72
2023/11/11 13:51:16;;;;;;;;;;;;;;;;;;5050495;28;20019;-74
2023/11/11 13:53:43;;;;;;;;;;;;;;;;;;5051085;28;19931;-74
2023/11/11 13:56:11;;;;;;;;;;;;;;;;;;5046807;28;19956;-73
2023/11/11 13:58:38;;;;;;;;;;;;;;;;;;5050083;28;19968;-73
2023/11/11 14:01:09;;;;;;;;;;;;;;;;;;5044821;28;19925;-73
2023/11/11 14:03:36;;;;;;;;;;;;;;;;;;5048899;28;19932;-73
2023/11/11 14:06:05;;;;;;;;;;;;;;;;;;5050189;28;19931;-74
2023/11/11 14:08:33;;;;;;;;;;;;;;;;;;5067584;28;20306;-74
2023/11/11 14:11:01;;;;;;;;;;;;;;;;;;5047133;28;20028;-74
2023/11/11 14:13:29;;;;;;;;;;;;;;;;;;5052998;28;19924;-75
2023/11/11 14:16:06;;;;;;;;;;;;;;;;;;5043104;28;19968;-74
2023/11/11 14:18:33;;;;;;;;;;;;;;;;;;5035895;28;19936;-75
2023/11/11 14:21:00;;;;;;;;;;;;;;;;;;5054408;28;19931;-75
2023/11/11 14:23:27;;;;;;;;;;;;;;;;;;5059113;28;19925;-74
2023/11/11 14:25:54;;;;;;;;;;;;;;;;;;5051244;28;19925;-74
2023/11/11 14:28:22;;;;;;;;;;;;;;;;;;5056309;28;19925;-75
2023/11/11 14:30:50;;;;;;;;;;;;;;;;;;5057042;28;19925;-74
2023/11/11 14:33:18;;;;;;;;;;;;;;;;;;5055830;28;19931;-74
2023/11/11 14:35:45;;;;;;;;;;;;;;;;;;5053701;28;19925;-74
2023/11/11 14:38:13;;;;;;;;;;;;;;;;;;5053998;28;19937;-74
2023/11/11 14:40:41;;;;;;;;;;;;;;;;;;5066476;28;20287;-73
2023/11/11 14:43:08;;;;;;;;;;;;;;;;;;5050903;28;20395;-74
2023/11/11 14:45:35;;;;;;;;;;;;;;;;;;5058922;28;19925;-76
2023/11/11 14:48:02;;;;;;;;;;;;;;;;;;5052757;28;20019;-73
2023/11/11 14:50:29;;;;;;;;;;;;;;;;;;5049366;28;20011;-75
2023/11/11 14:52:56;;;;;;;;;;;;;;;;;;5054724;28;19971;-74
2023/11/11 14:55:24;;;;;;;;;;;;;;;;;;5049049;28;19947;-74
2023/11/11 14:57:53;;;;;;;;;;;;;;;;;;5045721;28;19995;-72
2023/11/11 15:00:22;;;;;;;;;;;;;;;;;;5041132;28;19975;-73
2023/11/11 15:02:49;;;;;;;;;;;;;;;;;;5041927;28;19940;-73
2023/11/11 15:05:17;;;;;;;;;;;;;;;;;;5046456;28;20323;-73
2023/11/11 15:07:45;;;;;;;;;;;;;;;;;;5048826;28;19929;-73
2023/11/11 15:10:15;;;;;;;;;;;;;;;;;;5042776;28;19925;-74
2023/11/11 15:12:42;;;;;;;;;;;;;;;;;;5046371;28;19929;-74
2023/11/11 15:15:10;;;;;;;;;;;;;;;;;;5048569;28;19932;-74
2023/11/11 15:17:38;;;;;;;;;;;;;;;;;;5044613;28;19979;-73
2023/11/11 15:20:06;;;;;;;;;;;;;;;;;;5038549;28;19938;-73
2023/11/11 15:22:33;;;;;;;;;;;;;;;;;;5046230;28;19979;-75
2023/11/11 15:25:00;;;;;;;;;;;;;;;;;;5046113;28;19976;-73
2023/11/11 15:27:28;;;;;;;;;;;;;;;;;;5047242;28;19968;-73
2023/11/11 15:29:57;;;;;;;;;;;;;;;;;;5048150;28;19929;-73
2023/11/11 15:32:24;;;;;;;;;;;;;;;;;;5044422;28;20422;-74
2023/11/11 15:34:52;;;;;;;;;;;;;;;;;;5046479;28;20398;-73
2023/11/11 15:37:19;;;;;;;;;;;;;;;;;;5044249;28;19979;-72
2023/11/11 15:39:46;;;;;;;;;;;;;;;;;;5034545;28;19964;-74
2023/11/11 15:42:13;;;;;;;;;;;;;;;;;;5037887;28;20383;-73
2023/11/11 15:44:41;;;;;;;;;;;;;;;;;;5046867;28;20291;-73
2023/11/11 15:47:08;;;;;;;;;;;;;;;;;;5045474;28;19939;-73
2023/11/11 15:49:35;;;;;;;;;;;;;;;;;;5041715;28;19931;-72
2023/11/11 15:52:03;;;;;;;;;;;;;;;;;;5046981;28;20014;-76
2023/11/11 15:54:30;;;;;;;;;;;;;;;;;;5048163;28;20027;-72
2023/11/11 15:56:58;;;;;;;;;;;;;;;;;;5045071;28;20632;-74
2023/11/11 15:59:25;;;;;;;;;;;;;;;;;;5041784;28;20351;-74
2023/11/11 16:01:53;;;;;;;;;;;;;;;;;;5045970;28;20280;-72
2023/11/11 16:04:20;;;;;;;;;;;;;;;;;;5039258;28;20494;-72
2023/11/11 16:06:47;;;;;;;;;;;;;;;;;;5043509;28;20379;-73
2023/11/11 16:09:15;;;;;;;;;;;;;;;;;;5043140;28;19963;-73
2023/11/11 16:11:43;;;;;;;;;;;;;;;;;;5042009;28;19967;-72
2023/11/11 16:14:11;;;;;;;;;;;;;;;;;;5050669;28;20356;-73
2023/11/11 16:16:38;;;;;;;;;;;;;;;;;;5052047;28;19925;-72
2023/11/11 16:19:05;;;;;;;;;;;;;;;;;;5052104;28;19932;-73
2023/11/11 16:21:32;;;;;;;;;;;;;;;;;;5044602;28;19925;-72
2023/11/11 16:24:03;;;;;;;;;;;;;;;;;;5045237;28;20422;-73
2023/11/11 16:26:30;;;;;;;;;;;;;;;;;;5048093;28;20422;-71
2023/11/11 16:28:57;;;;;;;;;;;;;;;;;;5051113;28;19979;-71
2023/11/11 16:31:24;;;;;;;;;;;;;;;;;;5053440;28;19956;-74
2023/11/11 16:33:51;;;;;;;;;;;;;;;;;;5046946;28;20371;-72
2023/11/11 16:36:18;;;;;;;;;;;;;;;;;;5045080;28;19946;-72
2023/11/11 16:38:47;;;;;;;;;;;;;;;;;;5050865;28;19947;-73
2023/11/11 16:41:14;;;;;;;;;;;;;;;;;;5043250;28;19928;-73
2023/11/11 16:43:42;;;;;;;;;;;;;;;;;;5054710;28;19974;-73
2023/11/11 16:46:09;;;;;;;;;;;;;;;;;;5055519;28;19931;-72